createdAt,value
2017-05-11T00:00:16.070Z,28
2017-05-11T00:01:24.157Z,28
2017-05-11T00:02:32.286Z,28
2017-05-11T00:03:40.334Z,28
2017-05-11T00:04:48.422Z,28
2017-05-11T00:05:56.511Z,28
2017-05-11T00:07:04.604Z,28
2017-05-11T00:08:12.694Z,28
2017-05-11T00:09:20.784Z,28
2017-05-11T00:10:28.870Z,28
2017-05-11T00:11:36.961Z,28
2017-05-11T00:12:45.044Z,28
2017-05-11T00:13:53.132Z,28
2017-05-11T00:15:01.228Z,28
2017-05-11T00:16:09.320Z,28
2017-05-11T00:17:17.410Z,28
2017-05-11T00:18:25.497Z,28
2017-05-11T00:19:33.589Z,28
2017-05-11T00:20:41.673Z,28
2017-05-11T00:21:49.763Z,28
2017-05-11T00:22:57.857Z,28
2017-05-11T00:24:05.944Z,28
2017-05-11T00:25:14.032Z,28
2017-05-11T00:26:22.121Z,28
2017-05-11T00:27:30.208Z,28
2017-05-11T00:28:38.299Z,28
2017-05-11T00:29:46.387Z,28
2017-05-11T00:30:54.476Z,28
2017-05-11T00:32:02.561Z,28
2017-05-11T00:33:10.650Z,28
2017-05-11T00:34:18.740Z,28
2017-05-11T00:35:26.827Z,28
2017-05-11T00:36:34.916Z,28
2017-05-11T00:37:43.004Z,28
2017-05-11T00:38:51.091Z,28
2017-05-11T00:39:59.200Z,28
2017-05-11T00:41:07.274Z,28
2017-05-11T00:42:15.364Z,28
2017-05-11T00:43:23.453Z,28
2017-05-11T00:44:34.162Z,28
2017-05-11T00:45:39.629Z,28
2017-05-11T00:46:47.717Z,28
2017-05-11T00:47:55.809Z,28
2017-05-11T00:49:03.894Z,28
2017-05-11T00:50:11.981Z,28
2017-05-11T00:51:20.082Z,28
2017-05-11T00:52:28.157Z,28
2017-05-11T00:53:36.250Z,28
2017-05-11T00:54:44.334Z,28
2017-05-11T00:55:52.426Z,28
2017-05-11T00:57:00.511Z,28
2017-05-11T00:58:08.597Z,28
2017-05-11T00:59:16.689Z,28
2017-05-11T01:00:24.775Z,28
2017-05-11T01:01:32.864Z,28
2017-05-11T01:02:40.959Z,28
2017-05-11T01:03:49.048Z,28
2017-05-11T01:04:57.138Z,28
2017-05-11T01:06:05.225Z,28
2017-05-11T01:07:13.321Z,28
2017-05-11T01:08:21.400Z,28
2017-05-11T01:09:29.490Z,28
2017-05-11T01:10:37.578Z,28
2017-05-11T01:11:45.665Z,28
2017-05-11T01:12:53.757Z,28
2017-05-11T01:14:01.849Z,28
2017-05-11T01:15:09.937Z,28
2017-05-11T01:16:18.026Z,28
2017-05-11T01:17:26.113Z,28
2017-05-11T01:18:34.201Z,28
2017-05-11T01:19:42.291Z,28
2017-05-11T01:20:50.379Z,28
2017-05-11T01:21:58.473Z,28
2017-05-11T01:23:06.555Z,28
2017-05-11T01:24:14.641Z,28
2017-05-11T01:25:22.728Z,28
2017-05-11T01:26:30.819Z,28
2017-05-11T01:27:38.909Z,28
2017-05-11T01:28:46.997Z,28
2017-05-11T01:29:55.087Z,28
2017-05-11T01:31:03.174Z,28
2017-05-11T01:32:11.262Z,28
2017-05-11T01:33:19.356Z,28
2017-05-11T01:34:27.444Z,28
2017-05-11T01:35:35.536Z,28
2017-05-11T01:36:43.621Z,28
2017-05-11T01:37:51.708Z,28
2017-05-11T01:38:59.797Z,28
2017-05-11T01:40:07.888Z,28
2017-05-11T01:41:15.976Z,28
2017-05-11T01:42:24.062Z,28
2017-05-11T01:43:32.152Z,28
2017-05-11T01:44:40.239Z,28
2017-05-11T01:45:48.328Z,28
2017-05-11T01:46:56.415Z,28
2017-05-11T01:48:04.504Z,28
2017-05-11T01:49:12.593Z,28
2017-05-11T01:50:20.686Z,28
2017-05-11T01:51:28.768Z,28
2017-05-11T01:52:36.856Z,28
2017-05-11T01:53:44.943Z,28
2017-05-11T01:54:53.032Z,28
2017-05-11T01:56:01.119Z,28
2017-05-11T01:57:09.208Z,28
2017-05-11T01:58:17.297Z,28
2017-05-11T01:59:25.386Z,28
2017-05-11T02:00:33.477Z,28
2017-05-11T02:01:41.557Z,28
2017-05-11T02:02:49.650Z,28
2017-05-11T02:03:57.731Z,28
2017-05-11T02:05:05.829Z,28
2017-05-11T02:06:13.908Z,28
2017-05-11T02:07:21.997Z,28
2017-05-11T02:08:30.089Z,28
2017-05-11T02:09:38.178Z,28
2017-05-11T02:10:46.266Z,28
2017-05-11T02:11:54.355Z,28
2017-05-11T02:13:02.443Z,28
2017-05-11T02:14:10.532Z,28
2017-05-11T02:15:18.618Z,28
2017-05-11T02:16:26.706Z,28
2017-05-11T02:17:34.796Z,28
2017-05-11T02:18:42.883Z,28
2017-05-11T02:19:50.968Z,29
2017-05-11T02:20:59.056Z,29
2017-05-11T02:22:07.147Z,28
2017-05-11T02:23:15.234Z,28
2017-05-11T02:24:23.324Z,28
2017-05-11T02:25:31.410Z,28
2017-05-11T02:26:39.498Z,28
2017-05-11T02:27:47.588Z,28
2017-05-11T02:28:55.673Z,28
2017-05-11T02:30:03.761Z,28
2017-05-11T02:31:11.858Z,28
2017-05-11T02:32:19.942Z,28
2017-05-11T02:33:28.030Z,28
2017-05-11T02:34:36.118Z,28
2017-05-11T02:35:44.206Z,28
2017-05-11T02:36:52.293Z,28
2017-05-11T02:38:00.378Z,29
2017-05-11T02:39:08.464Z,28
2017-05-11T02:40:16.550Z,29
2017-05-11T02:41:24.638Z,28
2017-05-11T02:42:32.727Z,28
2017-05-11T02:43:40.815Z,29
2017-05-11T02:44:48.902Z,29
2017-05-11T02:45:56.991Z,28
2017-05-11T02:47:05.076Z,28
2017-05-11T02:48:13.164Z,28
2017-05-11T02:49:21.252Z,28
2017-05-11T02:50:29.338Z,28
2017-05-11T02:51:37.549Z,29
2017-05-11T02:52:45.514Z,28
2017-05-11T02:53:53.599Z,28
2017-05-11T02:55:01.688Z,29
2017-05-11T02:56:09.780Z,28
2017-05-11T02:57:17.863Z,28
2017-05-11T02:58:25.949Z,28
2017-05-11T02:59:34.040Z,29
2017-05-11T03:00:42.129Z,28
2017-05-11T03:01:50.218Z,28
2017-05-11T03:02:58.299Z,29
2017-05-11T03:04:06.386Z,28
2017-05-11T03:05:14.474Z,29
2017-05-11T03:06:22.560Z,29
2017-05-11T03:07:30.647Z,29
2017-05-11T03:08:38.732Z,28
2017-05-11T03:09:46.820Z,28
2017-05-11T03:10:54.910Z,29
2017-05-11T03:12:02.996Z,28
2017-05-11T03:13:11.082Z,29
2017-05-11T03:14:19.177Z,28
2017-05-11T03:15:27.261Z,28
2017-05-11T03:16:35.346Z,28
2017-05-11T03:17:43.436Z,28
2017-05-11T03:18:51.522Z,28
2017-05-11T03:19:59.609Z,28
2017-05-11T03:21:07.696Z,28
2017-05-11T03:22:15.785Z,28
2017-05-11T03:23:23.872Z,28
2017-05-11T03:24:31.958Z,28
2017-05-11T03:25:40.069Z,28
2017-05-11T03:26:48.131Z,28
2017-05-11T03:27:56.219Z,28
2017-05-11T03:29:04.306Z,28
2017-05-11T03:30:12.394Z,28
2017-05-11T03:31:20.478Z,28
2017-05-11T03:32:28.566Z,28
2017-05-11T03:33:36.661Z,28
2017-05-11T03:34:44.739Z,28
2017-05-11T03:35:52.831Z,28
2017-05-11T03:37:00.920Z,28
2017-05-11T03:38:09.010Z,28
2017-05-11T03:39:17.101Z,28
2017-05-11T03:40:25.191Z,28
2017-05-11T03:41:33.277Z,28
2017-05-11T03:42:41.364Z,28
2017-05-11T03:43:49.451Z,28
2017-05-11T03:44:57.539Z,28
2017-05-11T03:46:05.626Z,28
2017-05-11T03:47:13.711Z,28
2017-05-11T03:48:21.799Z,28
2017-05-11T03:49:29.888Z,28
2017-05-11T03:50:37.974Z,28
2017-05-11T03:51:46.059Z,28
2017-05-11T03:52:54.147Z,28
2017-05-11T03:54:02.239Z,28
2017-05-11T03:55:10.329Z,28
2017-05-11T03:56:18.414Z,28
2017-05-11T03:57:26.502Z,28
2017-05-11T03:58:34.680Z,28
2017-05-11T03:59:42.674Z,28
2017-05-11T04:00:50.761Z,28
2017-05-11T04:01:58.846Z,28
2017-05-11T04:03:06.933Z,28
2017-05-11T04:04:15.081Z,28
2017-05-11T04:05:23.107Z,28
2017-05-11T04:06:31.195Z,28
2017-05-11T04:07:39.282Z,28
2017-05-11T04:08:47.366Z,28
2017-05-11T04:09:55.456Z,28
2017-05-11T04:11:03.543Z,28
2017-05-11T04:12:11.632Z,28
2017-05-11T04:13:19.715Z,28
2017-05-11T04:14:27.802Z,28
2017-05-11T04:15:35.891Z,28
2017-05-11T04:16:43.978Z,28
2017-05-11T04:17:52.062Z,28
2017-05-11T04:19:00.147Z,28
2017-05-11T04:20:08.234Z,28
2017-05-11T04:21:16.321Z,28
2017-05-11T04:22:24.406Z,28
2017-05-11T04:23:32.497Z,28
2017-05-11T04:24:40.580Z,28
2017-05-11T04:25:48.668Z,28
2017-05-11T04:26:56.756Z,28
2017-05-11T04:28:04.840Z,28
2017-05-11T04:29:12.927Z,28
2017-05-11T04:30:21.012Z,28
2017-05-11T04:31:29.100Z,28
2017-05-11T04:32:37.186Z,28
2017-05-11T04:33:45.272Z,28
2017-05-11T04:34:53.359Z,28
2017-05-11T04:36:01.446Z,28
2017-05-11T04:37:09.532Z,28
2017-05-11T04:38:17.624Z,28
2017-05-11T04:39:25.706Z,28
2017-05-11T04:40:33.793Z,28
2017-05-11T04:41:41.885Z,28
2017-05-11T04:42:49.968Z,28
2017-05-11T04:43:58.053Z,28
2017-05-11T04:45:06.164Z,28
2017-05-11T04:46:14.233Z,28
2017-05-11T04:47:22.314Z,28
2017-05-11T04:48:30.398Z,28
2017-05-11T04:49:38.482Z,29
2017-05-11T04:50:46.569Z,29
2017-05-11T04:51:54.656Z,28
2017-05-11T04:53:02.743Z,28
2017-05-11T04:54:10.831Z,29
2017-05-11T04:55:18.917Z,28
2017-05-11T04:56:27.002Z,28
2017-05-11T04:57:35.089Z,28
2017-05-11T04:58:43.174Z,28
2017-05-11T04:59:51.261Z,29
2017-05-11T05:00:59.348Z,29
2017-05-11T05:02:07.436Z,29
2017-05-11T05:03:15.524Z,29
2017-05-11T05:04:23.608Z,28
2017-05-11T05:05:31.692Z,29
2017-05-11T05:06:39.781Z,29
2017-05-11T05:07:47.866Z,29
2017-05-11T05:08:55.954Z,29
2017-05-11T05:10:04.044Z,29
2017-05-11T05:11:12.132Z,29
2017-05-11T05:12:20.222Z,29
2017-05-11T05:13:28.303Z,29
2017-05-11T05:14:36.392Z,29
2017-05-11T05:15:44.481Z,29
2017-05-11T05:16:52.560Z,29
2017-05-11T05:18:00.646Z,29
2017-05-11T05:19:08.732Z,29
2017-05-11T05:20:16.821Z,29
2017-05-11T05:21:24.911Z,29
2017-05-11T05:22:32.995Z,29
2017-05-11T05:23:41.081Z,29
2017-05-11T05:24:49.167Z,29
2017-05-11T05:25:57.252Z,29
2017-05-11T05:27:05.340Z,29
2017-05-11T05:28:13.422Z,29
2017-05-11T05:29:21.511Z,29
2017-05-11T05:30:29.596Z,29
2017-05-11T05:31:37.681Z,29
2017-05-11T05:32:45.769Z,29
2017-05-11T05:33:53.854Z,29
2017-05-11T05:35:01.942Z,29
2017-05-11T05:36:10.027Z,29
2017-05-11T05:37:18.115Z,29
2017-05-11T05:38:26.201Z,30
2017-05-11T05:39:34.286Z,30
2017-05-11T05:40:42.381Z,30
2017-05-11T05:41:50.467Z,30
2017-05-11T05:42:58.556Z,30
2017-05-11T05:44:06.642Z,30
2017-05-11T05:45:14.727Z,30
2017-05-11T05:46:22.813Z,30
2017-05-11T05:47:30.901Z,30
2017-05-11T05:48:38.988Z,30
2017-05-11T05:49:47.072Z,30
2017-05-11T05:50:55.158Z,30
2017-05-11T05:52:03.245Z,30
2017-05-11T05:53:11.333Z,30
2017-05-11T05:54:19.415Z,30
2017-05-11T05:55:27.501Z,30
2017-05-11T05:56:35.590Z,30
2017-05-11T05:57:43.675Z,30
2017-05-11T05:58:51.761Z,30
2017-05-11T05:59:59.849Z,30
2017-05-11T06:01:08.037Z,30
2017-05-11T06:02:16.563Z,30
2017-05-11T06:03:24.820Z,30
2017-05-11T06:04:32.243Z,30
2017-05-11T06:05:40.280Z,30
2017-05-11T06:06:48.369Z,30
2017-05-11T06:07:56.457Z,30
2017-05-11T06:09:04.544Z,30
2017-05-11T06:10:12.630Z,30
2017-05-11T06:11:20.715Z,30
2017-05-11T06:12:28.801Z,30
2017-05-11T06:13:36.912Z,30
2017-05-11T06:14:44.974Z,30
2017-05-11T06:15:53.059Z,30
2017-05-11T06:17:01.147Z,30
2017-05-11T06:18:09.234Z,30
2017-05-11T06:19:17.319Z,30
2017-05-11T06:20:25.407Z,30
2017-05-11T06:21:33.492Z,30
2017-05-11T06:22:41.579Z,30
2017-05-11T06:23:49.664Z,30
2017-05-11T06:24:57.758Z,30
2017-05-11T06:26:05.836Z,30
2017-05-11T06:27:13.923Z,30
2017-05-11T06:28:22.011Z,30
2017-05-11T06:29:30.098Z,30
2017-05-11T06:30:38.183Z,30
2017-05-11T06:31:46.269Z,30
2017-05-11T06:32:54.354Z,30
2017-05-11T06:34:02.440Z,30
2017-05-11T06:35:10.538Z,30
2017-05-11T06:36:18.612Z,30
2017-05-11T06:37:26.700Z,31
2017-05-11T06:38:34.785Z,31
2017-05-11T06:39:42.872Z,31
2017-05-11T06:40:51.288Z,30
2017-05-11T06:41:59.044Z,31
2017-05-11T06:43:07.138Z,30
2017-05-11T06:44:15.214Z,31
2017-05-11T06:45:23.301Z,31
2017-05-11T06:46:31.389Z,31
2017-05-11T06:47:39.472Z,31
2017-05-11T06:48:47.564Z,31
2017-05-11T06:49:55.646Z,31
2017-05-11T06:51:03.730Z,31
2017-05-11T06:52:11.817Z,31
2017-05-11T06:53:19.901Z,31
2017-05-11T06:54:27.987Z,30
2017-05-11T06:55:36.075Z,30
2017-05-11T06:56:44.162Z,30
2017-05-11T06:57:52.248Z,30
2017-05-11T06:59:00.337Z,31
2017-05-11T07:00:08.422Z,30
2017-05-11T07:01:16.509Z,31
2017-05-11T07:02:24.591Z,31
2017-05-11T07:03:32.678Z,31
2017-05-11T07:04:40.765Z,31
2017-05-11T07:05:48.850Z,31
2017-05-11T07:06:56.937Z,31
2017-05-11T07:08:05.033Z,31
2017-05-11T07:09:13.110Z,31
2017-05-11T07:10:21.197Z,31
2017-05-11T07:11:29.282Z,31
2017-05-11T07:12:37.369Z,30
2017-05-11T07:13:45.452Z,30
2017-05-11T07:14:53.539Z,30
2017-05-11T07:16:01.625Z,30
2017-05-11T07:17:09.972Z,31
2017-05-11T07:18:17.798Z,31
2017-05-11T07:19:25.885Z,31
2017-05-11T07:20:33.971Z,31
2017-05-11T07:21:42.058Z,31
2017-05-11T07:22:50.150Z,30
2017-05-11T07:23:58.237Z,30
2017-05-11T07:25:06.332Z,30
2017-05-11T07:26:14.412Z,31
2017-05-11T07:27:22.500Z,31
2017-05-11T07:28:30.583Z,31
2017-05-11T07:29:38.674Z,31
2017-05-11T07:30:46.799Z,31
2017-05-11T07:31:54.841Z,31
2017-05-11T07:33:02.926Z,31
2017-05-11T07:34:11.014Z,31
2017-05-11T07:35:19.099Z,31
2017-05-11T07:36:27.187Z,31
2017-05-11T07:37:35.273Z,31
2017-05-11T07:38:43.359Z,31
2017-05-11T07:39:51.445Z,31
2017-05-11T07:40:59.532Z,31
2017-05-11T07:42:07.615Z,31
2017-05-11T07:43:15.702Z,31
2017-05-11T07:44:23.790Z,31
2017-05-11T07:45:31.876Z,31
2017-05-11T07:46:40.146Z,31
2017-05-11T07:47:48.106Z,31
2017-05-11T07:48:56.135Z,31
2017-05-11T07:50:04.222Z,31
2017-05-11T07:51:12.305Z,31
2017-05-11T07:52:20.391Z,31
2017-05-11T07:53:28.477Z,31
2017-05-11T07:54:36.568Z,31
2017-05-11T07:55:44.650Z,31
2017-05-11T07:56:52.737Z,31
2017-05-11T07:58:00.827Z,31
2017-05-11T07:59:08.911Z,31
2017-05-11T08:00:16.994Z,31
2017-05-11T08:01:25.082Z,31
2017-05-11T08:02:33.170Z,31
2017-05-11T08:03:41.260Z,31
2017-05-11T08:04:49.358Z,30
2017-05-11T08:05:57.429Z,31
2017-05-11T08:07:05.514Z,31
2017-05-11T08:08:13.600Z,31
2017-05-11T08:09:21.689Z,30
2017-05-11T08:10:29.773Z,30
2017-05-11T08:11:37.870Z,31
2017-05-11T08:12:45.946Z,31
2017-05-11T08:13:54.041Z,30
2017-05-11T08:15:02.122Z,31
2017-05-11T08:16:10.208Z,31
2017-05-11T08:17:18.295Z,31
2017-05-11T08:18:26.393Z,31
2017-05-11T08:19:34.470Z,31
2017-05-11T08:20:42.555Z,31
2017-05-11T08:21:50.706Z,31
2017-05-11T08:22:58.726Z,31
2017-05-11T08:24:06.813Z,31
2017-05-11T08:25:14.903Z,31
2017-05-11T08:26:22.988Z,31
2017-05-11T08:27:31.075Z,31
2017-05-11T08:28:39.162Z,31
2017-05-11T08:29:47.248Z,31
2017-05-11T08:30:55.336Z,31
2017-05-11T08:32:03.422Z,31
2017-05-11T08:33:11.507Z,31
2017-05-11T08:34:19.603Z,31
2017-05-11T08:35:27.682Z,31
2017-05-11T08:36:35.777Z,31
2017-05-11T08:37:43.855Z,31
2017-05-11T08:38:51.989Z,31
2017-05-11T08:40:00.029Z,31
2017-05-11T08:41:08.115Z,31
2017-05-11T08:42:16.201Z,31
2017-05-11T08:43:24.293Z,31
2017-05-11T08:44:32.378Z,31
2017-05-11T08:45:40.463Z,31
2017-05-11T08:46:48.549Z,31
2017-05-11T08:47:56.637Z,32
2017-05-11T08:49:04.723Z,31
2017-05-11T08:50:12.809Z,31
2017-05-11T08:51:20.894Z,31
2017-05-11T08:52:28.986Z,31
2017-05-11T08:53:37.070Z,31
2017-05-11T08:54:45.155Z,31
2017-05-11T08:55:53.311Z,31
2017-05-11T08:57:01.328Z,31
2017-05-11T08:58:09.424Z,31
2017-05-11T08:59:17.503Z,31
2017-05-11T09:00:25.587Z,31
2017-05-11T09:01:33.676Z,31
2017-05-11T09:02:41.761Z,32
2017-05-11T09:03:49.846Z,31
2017-05-11T09:04:57.944Z,32
2017-05-11T09:06:06.027Z,31
2017-05-11T09:07:14.114Z,32
2017-05-11T09:08:22.202Z,31
2017-05-11T09:09:30.318Z,31
2017-05-11T09:10:38.376Z,31
2017-05-11T09:11:46.463Z,31
2017-05-11T09:12:54.575Z,31
2017-05-11T09:14:02.637Z,31
2017-05-11T09:15:10.723Z,31
2017-05-11T09:16:18.812Z,31
2017-05-11T09:17:26.900Z,32
2017-05-11T09:18:34.984Z,31
2017-05-11T09:19:43.072Z,31
2017-05-11T09:20:51.158Z,32
2017-05-11T09:21:59.245Z,31
2017-05-11T09:23:07.334Z,31
2017-05-11T09:24:15.420Z,32
2017-05-11T09:25:23.506Z,31
2017-05-11T09:26:31.593Z,32
2017-05-11T09:27:39.686Z,32
2017-05-11T09:28:47.766Z,32
2017-05-11T09:29:55.885Z,32
2017-05-11T09:31:03.942Z,31
2017-05-11T09:32:12.025Z,31
2017-05-11T09:33:20.111Z,31
2017-05-11T09:34:28.199Z,32
2017-05-11T09:35:36.288Z,33
2017-05-11T09:36:44.375Z,32
2017-05-11T09:37:52.461Z,32
2017-05-11T09:39:00.547Z,32
2017-05-11T09:40:08.636Z,32
2017-05-11T09:41:16.726Z,32
2017-05-11T09:42:24.837Z,32
2017-05-11T09:43:32.900Z,33
2017-05-11T09:44:40.988Z,33
2017-05-11T09:45:49.073Z,32
2017-05-11T09:46:57.208Z,32
2017-05-11T09:48:05.245Z,32
2017-05-11T09:49:13.341Z,32
2017-05-11T09:50:21.428Z,32
2017-05-11T09:51:29.513Z,32
2017-05-11T09:52:37.609Z,32
2017-05-11T09:53:45.686Z,32
2017-05-11T09:54:53.773Z,33
2017-05-11T09:56:01.860Z,33
2017-05-11T09:57:09.962Z,32
2017-05-11T09:58:18.042Z,33
2017-05-11T09:59:26.126Z,33
2017-05-11T10:00:34.214Z,32
2017-05-11T10:01:42.301Z,32
2017-05-11T10:02:50.390Z,32
2017-05-11T10:03:58.506Z,32
2017-05-11T10:05:06.586Z,32
2017-05-11T10:06:14.647Z,32
2017-05-11T10:07:22.738Z,32
2017-05-11T10:08:30.823Z,32
2017-05-11T10:09:38.909Z,32
2017-05-11T10:10:46.996Z,32
2017-05-11T10:11:55.085Z,32
2017-05-11T10:13:03.172Z,32
2017-05-11T10:14:11.257Z,32
2017-05-11T10:15:19.343Z,32
2017-05-11T10:16:27.430Z,32
2017-05-11T10:17:35.518Z,32
2017-05-11T10:18:43.602Z,32
2017-05-11T10:19:51.699Z,32
2017-05-11T10:20:59.792Z,32
2017-05-11T10:22:07.887Z,32
2017-05-11T10:23:15.964Z,32
2017-05-11T10:24:24.053Z,32
2017-05-11T10:25:32.132Z,32
2017-05-11T10:26:40.223Z,32
2017-05-11T10:27:48.307Z,32
2017-05-11T10:28:56.451Z,32
2017-05-11T10:30:04.483Z,32
2017-05-11T10:31:12.566Z,32
2017-05-11T10:32:20.653Z,33
2017-05-11T10:33:28.932Z,32
2017-05-11T10:34:37.100Z,33
2017-05-11T10:35:44.914Z,32
2017-05-11T10:36:53.037Z,32
2017-05-11T10:38:01.223Z,32
2017-05-11T10:39:09.728Z,32
2017-05-11T10:40:17.263Z,32
2017-05-11T10:41:25.349Z,32
2017-05-11T10:42:37.259Z,32
2017-05-11T10:43:41.521Z,33
2017-05-11T10:44:49.858Z,32
2017-05-11T10:45:57.939Z,33
2017-05-11T10:47:05.793Z,32
2017-05-11T10:48:13.868Z,33
2017-05-11T10:49:21.989Z,32
2017-05-11T10:50:30.101Z,33
2017-05-11T10:51:38.247Z,33
2017-05-11T10:52:46.219Z,32
2017-05-11T10:53:54.306Z,32
2017-05-11T10:55:02.476Z,32
2017-05-11T10:56:10.480Z,32
2017-05-11T10:57:18.607Z,32
2017-05-11T10:58:26.653Z,32
2017-05-11T10:59:34.742Z,32
2017-05-11T11:00:42.828Z,33
2017-05-11T11:01:50.916Z,32
2017-05-11T11:02:59.003Z,32
2017-05-11T11:04:07.101Z,32
2017-05-11T11:05:15.176Z,32
2017-05-11T11:06:23.263Z,32
2017-05-11T11:07:31.350Z,32
2017-05-11T11:08:39.437Z,32
2017-05-11T11:09:47.522Z,33
2017-05-11T11:10:55.614Z,32
2017-05-11T11:12:03.756Z,32
2017-05-11T11:13:11.783Z,32
2017-05-11T11:14:19.873Z,33
2017-05-11T11:15:27.962Z,32
2017-05-11T11:16:36.078Z,32
2017-05-11T11:17:44.133Z,33
2017-05-11T11:18:52.218Z,32
2017-05-11T11:20:00.308Z,32
2017-05-11T11:21:08.395Z,32
2017-05-11T11:22:16.484Z,32
2017-05-11T11:23:24.566Z,32
2017-05-11T11:24:32.663Z,32
2017-05-11T11:25:40.740Z,32
2017-05-11T11:26:48.827Z,32
2017-05-11T11:27:56.916Z,32
2017-05-11T11:29:05.013Z,32
2017-05-11T11:30:13.090Z,32
2017-05-11T11:31:21.177Z,32
2017-05-11T11:32:29.269Z,32
2017-05-11T11:33:37.351Z,32
2017-05-11T11:34:45.438Z,32
2017-05-11T11:35:53.524Z,32
2017-05-11T11:37:01.611Z,32
2017-05-11T11:38:09.698Z,32
2017-05-11T11:39:17.785Z,32
2017-05-11T11:40:25.873Z,32
2017-05-11T11:41:33.961Z,32
2017-05-11T11:42:42.045Z,32
2017-05-11T11:43:50.143Z,32
2017-05-11T11:44:58.261Z,32
2017-05-11T11:46:06.404Z,32
2017-05-11T11:47:14.396Z,32
2017-05-11T11:48:22.489Z,32
2017-05-11T11:49:30.573Z,32
2017-05-11T11:50:38.657Z,32
2017-05-11T11:51:46.749Z,32
2017-05-11T11:52:54.834Z,32
2017-05-11T11:54:02.915Z,32
2017-05-11T11:55:11.004Z,32
2017-05-11T11:56:19.117Z,32
2017-05-11T11:57:27.180Z,32
2017-05-11T11:58:35.267Z,32
2017-05-11T11:59:43.354Z,32
2017-05-11T12:00:51.440Z,32
2017-05-11T12:01:59.527Z,32
2017-05-11T12:03:07.669Z,32
2017-05-11T12:04:15.701Z,32
2017-05-11T12:05:23.789Z,32
2017-05-11T12:06:31.915Z,32
2017-05-11T12:07:39.961Z,33
2017-05-11T12:08:48.048Z,33
2017-05-11T12:09:56.143Z,33
2017-05-11T12:11:04.230Z,33
2017-05-11T12:12:12.315Z,33
2017-05-11T12:13:20.400Z,33
2017-05-11T12:14:28.487Z,33
2017-05-11T12:15:36.577Z,33
2017-05-11T12:16:44.663Z,33
2017-05-11T12:17:52.752Z,33
2017-05-11T12:19:00.844Z,33
2017-05-11T12:20:08.963Z,33
2017-05-11T12:21:17.018Z,33
2017-05-11T12:22:25.106Z,34
2017-05-11T12:23:33.191Z,34
2017-05-11T12:24:41.285Z,33
2017-05-11T12:25:49.374Z,34
2017-05-11T12:26:57.456Z,33
2017-05-11T12:28:05.543Z,33
2017-05-11T12:29:13.627Z,34
2017-05-11T12:30:21.718Z,34
2017-05-11T12:31:29.802Z,33
2017-05-11T12:32:37.886Z,32
2017-05-11T12:33:45.977Z,32
2017-05-11T12:34:54.061Z,32
2017-05-11T12:36:02.609Z,31
2017-05-11T12:37:10.241Z,31
2017-05-11T12:38:18.321Z,31
2017-05-11T12:39:26.423Z,30
2017-05-11T12:40:34.500Z,30
2017-05-11T12:41:42.587Z,30
2017-05-11T12:42:50.673Z,30
2017-05-11T12:43:58.762Z,30
2017-05-11T12:45:06.930Z,29
2017-05-11T12:46:14.930Z,29
2017-05-11T12:47:23.017Z,29
2017-05-11T12:48:31.106Z,30
2017-05-11T12:49:39.402Z,30
2017-05-11T12:50:47.279Z,29
2017-05-11T12:51:55.451Z,29
2017-05-11T12:53:03.555Z,29
2017-05-11T12:54:11.749Z,30
2017-05-11T12:55:19.627Z,30
2017-05-11T12:56:32.025Z,30
2017-05-11T12:57:35.803Z,30
2017-05-11T12:58:43.894Z,29
2017-05-11T12:59:51.977Z,29
2017-05-11T13:01:00.063Z,28
2017-05-11T13:02:08.151Z,28
2017-05-11T13:03:16.234Z,28
2017-05-11T13:04:24.323Z,29
2017-05-11T13:05:32.408Z,28
2017-05-11T13:06:40.495Z,28
2017-05-11T13:07:48.580Z,27
2017-05-11T13:08:56.666Z,28
2017-05-11T13:10:04.752Z,27
2017-05-11T13:11:12.931Z,28
2017-05-11T13:12:20.931Z,27
2017-05-11T13:13:29.014Z,27
2017-05-11T13:14:37.102Z,28
2017-05-11T13:15:45.189Z,27
2017-05-11T13:16:53.271Z,27
2017-05-11T13:18:01.357Z,27
2017-05-11T13:19:09.445Z,27
2017-05-11T13:20:17.535Z,28
2017-05-11T13:21:25.622Z,28
2017-05-11T13:22:33.703Z,28
2017-05-11T13:23:41.789Z,28
2017-05-11T13:24:49.876Z,28
2017-05-11T13:25:57.963Z,28
2017-05-11T13:27:06.083Z,29
2017-05-11T13:28:14.203Z,28
2017-05-11T13:29:22.225Z,28
2017-05-11T13:30:30.318Z,28
2017-05-11T13:31:38.400Z,29
2017-05-11T13:32:46.523Z,29
2017-05-11T13:33:54.570Z,29
2017-05-11T13:35:02.661Z,29
2017-05-11T13:36:10.742Z,29
2017-05-11T13:37:18.830Z,29
2017-05-11T13:38:26.923Z,29
2017-05-11T13:39:35.013Z,29
2017-05-11T13:40:43.096Z,30
2017-05-11T13:41:51.208Z,30
2017-05-11T13:42:59.280Z,29
2017-05-11T13:44:07.381Z,30
2017-05-11T13:45:15.474Z,30
2017-05-11T13:46:23.544Z,30
2017-05-11T13:47:31.633Z,30
2017-05-11T13:48:39.717Z,30
2017-05-11T13:49:47.803Z,30
2017-05-11T13:50:55.889Z,31
2017-05-11T13:52:03.980Z,31
2017-05-11T13:53:12.068Z,30
2017-05-11T13:54:20.151Z,30
2017-05-11T13:55:28.239Z,30
2017-05-11T13:56:36.326Z,30
2017-05-11T13:57:44.417Z,31
2017-05-11T13:58:52.504Z,30
2017-05-11T14:00:00.604Z,31
2017-05-11T14:01:08.682Z,31
2017-05-11T14:02:16.856Z,31
2017-05-11T14:03:24.858Z,31
2017-05-11T14:04:32.949Z,31
2017-05-11T14:05:41.030Z,31
2017-05-11T14:06:49.122Z,31
2017-05-11T14:07:57.203Z,31
2017-05-11T14:09:05.297Z,31
2017-05-11T14:10:13.378Z,31
2017-05-11T14:11:21.470Z,31
2017-05-11T14:12:29.552Z,31
2017-05-11T14:13:37.640Z,31
2017-05-11T14:14:45.737Z,31
2017-05-11T14:15:53.818Z,31
2017-05-11T14:17:01.916Z,31
2017-05-11T14:18:10.022Z,31
2017-05-11T14:19:18.172Z,31
2017-05-11T14:20:26.177Z,31
2017-05-11T14:21:34.261Z,31
2017-05-11T14:22:42.351Z,31
2017-05-11T14:23:50.433Z,31
2017-05-11T14:24:58.518Z,31
2017-05-11T14:26:06.605Z,31
2017-05-11T14:27:14.693Z,31
2017-05-11T14:28:22.784Z,31
2017-05-11T14:29:30.871Z,31
2017-05-11T14:30:38.955Z,31
2017-05-11T14:31:47.042Z,31
2017-05-11T14:32:55.126Z,31
2017-05-11T14:34:03.218Z,31
2017-05-11T14:35:11.309Z,31
2017-05-11T14:36:19.492Z,31
2017-05-11T14:37:27.482Z,31
2017-05-11T14:38:35.568Z,31
2017-05-11T14:39:43.655Z,31
2017-05-11T14:40:51.740Z,31
2017-05-11T14:41:59.826Z,31
2017-05-11T14:43:07.913Z,31
2017-05-11T14:44:15.999Z,31
2017-05-11T14:45:24.088Z,31
2017-05-11T14:46:32.172Z,31
2017-05-11T14:47:40.260Z,31
2017-05-11T14:48:48.349Z,31
2017-05-11T14:49:56.435Z,31
2017-05-11T14:51:04.525Z,31
2017-05-11T14:52:12.612Z,31
2017-05-11T14:53:20.801Z,31
2017-05-11T14:54:28.789Z,31
2017-05-11T14:55:36.874Z,31
2017-05-11T14:56:44.971Z,31
2017-05-11T14:57:53.054Z,31
2017-05-11T14:59:01.140Z,31
2017-05-11T15:00:09.228Z,31
2017-05-11T15:01:17.313Z,31
2017-05-11T15:02:25.399Z,31
2017-05-11T15:03:33.486Z,32
2017-05-11T15:04:41.572Z,32
2017-05-11T15:05:49.660Z,32
2017-05-11T15:06:57.750Z,32
2017-05-11T15:08:05.835Z,32
2017-05-11T15:09:13.924Z,32
2017-05-11T15:10:22.044Z,31
2017-05-11T15:11:30.100Z,32
2017-05-11T15:12:38.184Z,32
2017-05-11T15:13:46.276Z,32
2017-05-11T15:14:54.357Z,32
2017-05-11T15:16:02.446Z,32
2017-05-11T15:17:10.529Z,32
2017-05-11T15:18:18.615Z,32
2017-05-11T15:19:26.704Z,33
2017-05-11T15:20:34.788Z,32
2017-05-11T15:21:42.879Z,32
2017-05-11T15:22:50.966Z,32
2017-05-11T15:23:59.067Z,32
2017-05-11T15:25:07.144Z,32
2017-05-11T15:26:15.229Z,32
2017-05-11T15:27:23.363Z,32
2017-05-11T15:28:31.404Z,33
2017-05-11T15:29:39.493Z,32
2017-05-11T15:30:47.590Z,32
2017-05-11T15:31:55.668Z,32
2017-05-11T15:33:03.748Z,32
2017-05-11T15:34:11.836Z,32
2017-05-11T15:35:19.921Z,32
2017-05-11T15:36:28.011Z,32
2017-05-11T15:37:36.100Z,32
2017-05-11T15:38:44.221Z,32
2017-05-11T15:39:52.272Z,32
2017-05-11T15:41:00.355Z,33
2017-05-11T15:42:08.446Z,32
2017-05-11T15:43:16.585Z,32
2017-05-11T15:44:24.670Z,32
2017-05-11T15:45:32.704Z,32
2017-05-11T15:46:40.795Z,32
2017-05-11T15:47:48.875Z,32
2017-05-11T15:48:56.982Z,32
2017-05-11T15:50:05.049Z,33
2017-05-11T15:51:13.140Z,33
2017-05-11T15:52:21.222Z,33
2017-05-11T15:53:29.308Z,33
2017-05-11T15:54:37.397Z,33
2017-05-11T15:55:45.478Z,33
2017-05-11T15:56:53.569Z,33
2017-05-11T15:58:01.656Z,33
2017-05-11T15:59:09.738Z,33
2017-05-11T16:00:17.825Z,33
2017-05-11T16:01:25.981Z,33
2017-05-11T16:02:34.002Z,33
2017-05-11T16:03:42.087Z,33
2017-05-11T16:04:50.183Z,34
2017-05-11T16:05:58.261Z,34
2017-05-11T16:07:06.350Z,34
2017-05-11T16:08:14.436Z,34
2017-05-11T16:09:22.517Z,34
2017-05-11T16:10:30.604Z,33